Time;durP1;ratioP1;P1;durP2;ratioP2;P2;SDS_P1;SDS_P2;PMS_P1;PMS_P2;Temp;Humidity;BMP_temperature;BMP_pressure;BME280_temperature;BME280_humidity;BME280_pressure;Samples;Min_cycle;Max_cycle;Signal;HPM_P1;HPM_P2
2022/12/18 00:00:43;;;;;;;77.47;26.42;;;-2.20;99.90;;;;;;5032710;28;20472;-61
2022/12/18 00:03:09;;;;;;;79.13;28.10;;;-2.20;99.90;;;;;;5032773;28;20473;-60
2022/12/18 00:05:36;;;;;;;75.82;26.17;;;-2.20;99.90;;;;;;5031510;28;20076;-60
2022/12/18 00:08:02;;;;;;;75.15;27.90;;;-2.20;99.90;;;;;;5037845;28;20040;-60
2022/12/18 00:10:28;;;;;;;75.35;27.80;;;-2.20;99.90;;;;;;5031995;28;20029;-60
2022/12/18 00:12:54;;;;;;;75.57;27.30;;;-2.20;99.90;;;;;;5034731;28;20081;-61
2022/12/18 00:15:20;;;;;;;74.68;27.25;;;-2.30;99.90;;;;;;5027336;28;20080;-60
2022/12/18 00:17:46;;;;;;;77.13;28.27;;;-2.40;99.90;;;;;;5028094;28;20044;-60
2022/12/18 00:20:12;;;;;;;74.45;28.27;;;-2.40;99.90;;;;;;5025170;28;20088;-60
2022/12/18 00:22:37;;;;;;;77.88;28.23;;;-2.40;99.90;;;;;;5032814;28;20408;-60
2022/12/18 00:25:03;;;;;;;75.05;27.35;;;-2.40;99.90;;;;;;5017624;28;20038;-60
2022/12/18 00:27:29;;;;;;;91.35;32.78;;;-2.40;99.90;;;;;;5028368;28;20041;-60
2022/12/18 00:29:54;;;;;;;88.95;32.20;;;-2.40;99.90;;;;;;5024615;28;20071;-60
2022/12/18 00:32:20;;;;;;;77.43;29.38;;;-2.40;99.90;;;;;;5027048;28;20069;-60
2022/12/18 00:34:45;;;;;;;85.65;30.60;;;-2.40;99.90;;;;;;5030354;28;20492;-61
2022/12/18 00:37:11;;;;;;;75.25;29.30;;;-2.40;99.90;;;;;;5032476;28;20029;-60
2022/12/18 00:39:36;;;;;;;87.32;31.55;;;-2.40;99.90;;;;;;5032113;28;20531;-61
2022/12/18 00:44:46;;;;;;;82.10;29.45;;;-2.40;99.90;;;;;;5029778;28;20084;-61
2022/12/18 00:47:12;;;;;;;84.95;31.05;;;-2.40;99.90;;;;;;5032061;28;20061;-59
2022/12/18 00:49:37;;;;;;;88.65;31.80;;;-2.40;99.90;;;;;;5031977;28;20541;-61
2022/12/18 00:52:03;;;;;;;82.38;30.73;;;-2.50;99.90;;;;;;5032192;28;20040;-61
2022/12/18 00:54:28;;;;;;;81.50;29.65;;;-2.50;99.90;;;;;;5028680;28;20404;-60
2022/12/18 00:56:55;;;;;;;79.47;30.48;;;-2.50;99.90;;;;;;5030253;28;20164;-61
2022/12/18 00:59:20;;;;;;;80.50;28.45;;;-2.50;99.90;;;;;;5032273;28;20363;-61
2022/12/18 01:01:46;;;;;;;80.97;29.48;;;-2.60;99.90;;;;;;5033587;28;20029;-61
2022/12/18 01:04:12;;;;;;;84.97;30.13;;;-2.60;99.90;;;;;;5032460;28;20159;-62
2022/12/18 01:06:37;;;;;;;82.65;29.40;;;-2.60;99.90;;;;;;5031644;28;20033;-61
2022/12/18 01:09:03;;;;;;;82.60;28.58;;;-2.60;99.90;;;;;;5032087;28;20426;-62
2022/12/18 01:11:29;;;;;;;77.10;28.80;;;-2.70;99.90;;;;;;5011629;28;20053;-61
2022/12/18 01:13:55;;;;;;;80.00;28.98;;;-2.70;99.90;;;;;;5030552;28;20043;-58
2022/12/18 01:16:21;;;;;;;70.40;27.85;;;-2.70;99.90;;;;;;5032203;28;20061;-61
2022/12/18 01:18:47;;;;;;;76.43;28.38;;;-2.70;99.90;;;;;;5032018;28;20408;-60
2022/12/18 01:21:15;;;;;;;70.32;27.02;;;-2.70;99.90;;;;;;5024491;28;20029;-61
2022/12/18 01:23:44;;;;;;;83.00;28.33;;;-3.50;99.90;;;;;;5033487;28;20088;-61
2022/12/18 01:26:13;;;;;;;72.35;28.08;;;-2.80;99.90;;;;;;5030747;28;20498;-61
2022/12/18 01:28:39;;;;;;;74.90;27.05;;;-2.80;99.90;;;;;;5030530;28;20080;-61
2022/12/18 01:31:29;;;;;;;80.78;27.25;;;-2.80;99.90;;;;;;5031170;28;20081;-61
2022/12/18 01:33:56;;;;;;;78.53;28.10;;;-2.80;99.90;;;;;;5007743;28;20435;-61
2022/12/18 01:36:23;;;;;;;73.15;28.20;;;-2.80;99.90;;;;;;5027111;28;20483;-60
2022/12/18 01:38:49;;;;;;;79.18;26.75;;;-2.80;99.90;;;;;;5033227;28;20041;-61
2022/12/18 01:41:17;;;;;;;80.43;29.02;;;-2.80;99.90;;;;;;5027233;28;20044;-60
2022/12/18 01:43:57;;;;;;;73.13;26.77;;;-2.80;99.90;;;;;;5028573;28;20476;-58
2022/12/18 01:46:27;;;;;;;75.57;27.15;;;-2.80;99.90;;;;;;5030891;28;20541;-60
2022/12/18 01:49:00;;;;;;;68.05;26.70;;;-2.80;99.90;;;;;;5027436;28;20483;-59
2022/12/18 01:51:29;;;;;;;66.95;26.20;;;-2.80;99.90;;;;;;5027445;28;20033;-60
2022/12/18 01:53:55;;;;;;;68.03;26.02;;;-2.80;99.90;;;;;;5030970;28;20063;-60
2022/12/18 01:56:22;;;;;;;73.93;27.63;;;-2.90;99.90;;;;;;5021401;28;20479;-61
2022/12/18 01:59:02;;;;;;;72.35;28.10;;;-2.90;99.90;;;;;;5028868;28;20033;-58
2022/12/18 02:01:30;;;;;;;78.95;27.88;;;-2.90;99.90;;;;;;5030929;28;20099;-60
2022/12/18 02:03:56;;;;;;;78.10;27.67;;;-2.90;99.90;;;;;;5023304;28;20034;-58
2022/12/18 02:06:34;;;;;;;76.88;28.50;;;-3.00;99.90;;;;;;5030261;28;20091;-59
2022/12/18 02:09:05;;;;;;;73.45;25.73;;;-3.00;99.90;;;;;;5027826;28;20038;-58
2022/12/18 02:12:15;;;;;;;73.22;27.95;;;-3.00;99.90;;;;;;5027485;28;20041;-62
2022/12/18 02:14:47;;;;;;;68.18;26.25;;;-3.00;99.90;;;;;;4972092;28;20481;-59
2022/12/18 02:17:17;;;;;;;73.45;27.55;;;-3.00;99.90;;;;;;4987106;28;20448;-60
2022/12/18 02:20:15;;;;;;;72.32;27.95;;;-3.10;99.90;;;;;;5011732;28;20088;-61
2022/12/18 02:23:09;;;;;;;68.22;27.15;;;-3.00;99.90;;;;;;4973725;28;20077;-61
2022/12/18 02:26:00;;;;;;;73.53;26.15;;;-3.00;99.90;;;;;;5021851;28;20523;-59
2022/12/18 02:28:31;;;;;;;73.75;26.52;;;-3.10;99.90;;;;;;5028016;28;20072;-60
2022/12/18 02:31:00;;;;;;;75.20;26.80;;;-3.10;99.90;;;;;;5028384;28;20041;-60
2022/12/18 02:33:28;;;;;;;74.40;28.13;;;-3.10;99.90;;;;;;5028732;28;20059;-59
2022/12/18 02:35:56;;;;;;;79.07;27.90;;;-3.10;99.90;;;;;;5025172;28;20041;-61
2022/12/18 02:38:24;;;;;;;74.55;27.88;;;-3.10;99.90;;;;;;5028298;28;20025;-60
2022/12/18 02:40:52;;;;;;;77.57;27.30;;;-3.10;99.90;;;;;;5030110;28;20104;-60
2022/12/18 02:43:17;;;;;;;82.35;28.02;;;-3.20;99.90;;;;;;5028747;28;20500;-62
2022/12/18 02:46:23;;;;;;;80.22;26.98;;;-3.20;99.90;;;;;;5024971;28;20275;-61
2022/12/18 02:48:50;;;;;;;76.90;26.02;;;-3.20;99.90;;;;;;5034886;28;20084;-61
2022/12/18 02:51:32;;;;;;;81.85;27.73;;;-3.20;99.90;;;;;;5029468;28;20040;-61
2022/12/18 02:54:10;;;;;;;70.17;26.37;;;-3.30;99.90;;;;;;5029873;28;20041;-62
2022/12/18 02:56:50;;;;;;;77.78;25.25;;;-3.30;99.90;;;;;;5033559;28;20089;-60
2022/12/18 02:59:38;;;;;;;78.03;26.77;;;-3.30;99.90;;;;;;5022364;28;20476;-62
2022/12/18 03:02:16;;;;;;;76.35;26.75;;;-3.30;99.90;;;;;;5031454;28;20049;-62
2022/12/18 03:04:52;;;;;;;73.97;25.20;;;-3.30;99.90;;;;;;5025137;28;20040;-63
2022/12/18 03:07:34;;;;;;;74.88;24.98;;;-3.30;99.90;;;;;;5036195;28;20041;-62
2022/12/18 03:10:01;;;;;;;79.40;27.77;;;-3.40;99.90;;;;;;5028539;28;20440;-62
2022/12/18 03:12:56;;;;;;;80.28;27.83;;;-3.40;99.90;;;;;;5027523;28;20495;-62
2022/12/18 03:15:37;;;;;;;77.07;27.70;;;-3.40;99.90;;;;;;5024441;28;20103;-62
2022/12/18 03:18:13;;;;;;;80.88;27.52;;;-3.40;99.90;;;;;;5029199;28;20452;-60
2022/12/18 03:20:42;;;;;;;75.93;27.30;;;-3.40;99.90;;;;;;5030341;28;20069;-62
2022/12/18 03:23:13;;;;;;;81.45;25.75;;;-3.40;99.90;;;;;;5029027;28;20483;-62
2022/12/18 03:25:42;;;;;;;74.90;25.85;;;-3.40;99.90;;;;;;5035371;28;20682;-62
2022/12/18 03:28:12;;;;;;;74.45;27.23;;;-3.40;99.90;;;;;;5029240;28;20041;-59
2022/12/18 03:30:41;;;;;;;66.95;25.17;;;-3.40;99.90;;;;;;5047304;28;20042;-62
2022/12/18 03:33:12;;;;;;;70.68;25.40;;;-3.40;99.90;;;;;;5029052;28;20063;-62
2022/12/18 03:35:41;;;;;;;67.20;25.20;;;-3.40;99.90;;;;;;5028205;28;20518;-62
2022/12/18 03:38:07;;;;;;;77.50;26.15;;;-3.40;99.90;;;;;;5024970;28;20043;-62
2022/12/18 03:41:01;;;;;;;77.32;26.85;;;-3.50;99.90;;;;;;5029924;28;20099;-60
2022/12/18 03:44:03;;;;;;;75.10;25.42;;;-3.50;99.90;;;;;;5027682;28;20518;-62
2022/12/18 03:46:40;;;;;;;65.53;23.70;;;-3.60;99.90;;;;;;5023847;28;20453;-63
2022/12/18 03:49:14;;;;;;;71.07;24.92;;;-3.60;99.90;;;;;;5029732;28;20064;-62
2022/12/18 03:51:52;;;;;;;78.60;24.83;;;-3.50;99.90;;;;;;5029187;28;20120;-61
2022/12/18 03:54:18;;;;;;;69.13;24.45;;;-3.50;99.90;;;;;;5029334;28;20033;-60
2022/12/18 03:56:48;;;;;;;65.00;24.25;;;-3.50;99.90;;;;;;5029057;28;20033;-62
2022/12/18 03:59:16;;;;;;;82.88;26.40;;;-3.50;99.90;;;;;;5034158;28;20038;-62
2022/12/18 04:01:47;;;;;;;77.43;26.00;;;-3.50;99.90;;;;;;5027037;28;20554;-61
2022/12/18 04:04:14;;;;;;;72.03;25.88;;;-3.50;99.90;;;;;;5028356;28;20121;-62
2022/12/18 04:06:41;;;;;;;75.85;24.40;;;-3.50;99.90;;;;;;5028535;28;20057;-62
2022/12/18 04:09:07;;;;;;;69.15;24.42;;;-3.50;99.90;;;;;;5033921;28;20396;-62
2022/12/18 04:11:33;;;;;;;74.60;26.08;;;-3.50;99.90;;;;;;5035765;28;20514;-63
2022/12/18 04:13:59;;;;;;;74.25;24.92;;;-3.50;99.90;;;;;;5029936;28;20042;-61
2022/12/18 04:16:26;;;;;;;68.20;25.38;;;-3.50;99.90;;;;;;5031544;28;20041;-62
2022/12/18 04:18:52;;;;;;;70.30;24.83;;;-3.60;99.90;;;;;;5030065;28;20041;-62
2022/12/18 04:21:18;;;;;;;68.45;25.35;;;-3.50;99.90;;;;;;5037626;28;20036;-62
2022/12/18 04:23:43;;;;;;;83.38;27.25;;;-3.50;99.90;;;;;;5034235;28;20091;-62
2022/12/18 04:26:09;;;;;;;73.20;24.85;;;-3.50;99.90;;;;;;5031898;28;20404;-61
2022/12/18 04:28:34;;;;;;;72.13;24.83;;;-3.50;99.90;;;;;;5029698;28;20123;-60
2022/12/18 04:31:00;;;;;;;69.38;24.63;;;-3.50;99.90;;;;;;5029889;28;20526;-62
2022/12/18 04:33:25;;;;;;;69.10;24.75;;;-3.50;99.90;;;;;;5025650;28;20036;-63
2022/12/18 04:35:51;;;;;;;72.00;25.15;;;-3.60;99.90;;;;;;5028846;28;20029;-61
2022/12/18 04:38:17;;;;;;;71.20;24.55;;;-3.60;99.90;;;;;;5031973;28;20096;-60
2022/12/18 04:40:43;;;;;;;64.22;24.77;;;-3.60;99.90;;;;;;5029424;28;20076;-62
2022/12/18 04:43:09;;;;;;;66.03;24.02;;;-3.60;99.90;;;;;;5028036;28;20044;-62
2022/12/18 04:45:34;;;;;;;61.08;23.27;;;-3.60;99.90;;;;;;5037330;28;20025;-62
2022/12/18 04:48:01;;;;;;;68.68;24.70;;;-3.60;99.90;;;;;;5036046;28;20192;-62
2022/12/18 04:50:27;;;;;;;74.32;24.48;;;-3.70;99.90;;;;;;5026368;28;20064;-63
2022/12/18 04:52:53;;;;;;;61.10;24.98;;;-3.70;99.90;;;;;;5030193;28;20650;-62
2022/12/18 04:55:18;;;;;;;70.68;24.80;;;-3.70;99.90;;;;;;5030784;28;20399;-62
2022/12/18 04:57:44;;;;;;;71.43;25.65;;;-3.70;99.90;;;;;;5033957;28;20032;-62
2022/12/18 05:00:10;;;;;;;68.72;25.08;;;-3.70;99.90;;;;;;5037792;28;20060;-61
2022/12/18 05:02:36;;;;;;;69.18;23.45;;;-3.70;99.90;;;;;;5038996;28;20037;-62
2022/12/18 05:05:02;;;;;;;59.92;22.63;;;-3.70;99.90;;;;;;5031607;28;20110;-60
2022/12/18 05:07:28;;;;;;;65.25;23.63;;;-3.70;99.90;;;;;;5030281;28;20041;-61
2022/12/18 05:09:53;;;;;;;59.33;23.33;;;-3.80;99.90;;;;;;5030360;28;20400;-61
2022/12/18 05:12:19;;;;;;;62.58;22.35;;;-3.70;99.90;;;;;;5030236;28;20041;-61
2022/12/18 05:14:44;;;;;;;58.95;22.67;;;-3.80;99.90;;;;;;5029555;28;20034;-61
2022/12/18 05:17:10;;;;;;;61.10;22.63;;;-3.80;99.90;;;;;;5030170;28;20041;-61
2022/12/18 05:19:39;;;;;;;59.72;21.67;;;-3.80;99.90;;;;;;5030509;28;20121;-61
2022/12/18 05:22:08;;;;;;;52.00;21.67;;;-3.80;99.90;;;;;;5021681;28;20053;-61
2022/12/18 05:24:34;;;;;;;53.72;22.40;;;-3.80;99.90;;;;;;5031350;28;20037;-61
2022/12/18 05:26:59;;;;;;;57.00;22.00;;;-3.80;99.90;;;;;;5029506;28;20033;-61
2022/12/18 05:29:25;;;;;;;55.75;22.27;;;-3.80;99.90;;;;;;5030338;28;20060;-61
2022/12/18 05:31:50;;;;;;;54.30;21.38;;;-3.80;99.90;;;;;;5031944;28;20049;-61
2022/12/18 05:34:16;;;;;;;50.92;20.58;;;-3.80;99.90;;;;;;5032765;28;20119;-60
2022/12/18 05:36:42;;;;;;;50.97;20.63;;;-3.90;99.90;;;;;;5034288;28;20033;-61
2022/12/18 05:39:08;;;;;;;57.13;20.88;;;-3.90;99.90;;;;;;5029065;28;20091;-61
2022/12/18 05:41:34;;;;;;;59.03;21.77;;;-3.90;99.90;;;;;;5029768;28;20038;-61
2022/12/18 05:43:59;;;;;;;51.53;21.23;;;-3.90;99.90;;;;;;5029505;28;20395;-61
2022/12/18 05:46:25;;;;;;;54.55;21.73;;;-3.90;99.90;;;;;;5031028;28;20108;-61
2022/12/18 05:48:51;;;;;;;50.85;20.50;;;-4.00;99.90;;;;;;5031102;28;20045;-61
2022/12/18 05:51:19;;;;;;;52.67;19.95;;;-4.00;99.90;;;;;;5030348;28;20033;-60
2022/12/18 05:53:45;;;;;;;54.40;21.63;;;-4.00;99.90;;;;;;5030973;28;20033;-61
2022/12/18 05:56:18;;;;;;;48.80;20.15;;;-4.00;99.90;;;;;;5026728;28;20553;-60
2022/12/18 05:58:43;;;;;;;53.30;20.58;;;-4.00;99.90;;;;;;5027011;28;20124;-61
2022/12/18 06:01:20;;;;;;;44.30;18.98;;;-4.10;99.90;;;;;;5030724;28;20121;-60
2022/12/18 06:03:46;;;;;;;51.92;19.92;;;-4.10;99.90;;;;;;5030786;28;20507;-61
2022/12/18 06:06:20;;;;;;;48.28;19.67;;;-4.10;99.90;;;;;;5026137;28;20049;-61
2022/12/18 06:08:47;;;;;;;51.92;20.65;;;-4.10;99.90;;;;;;5025746;28;20079;-60
2022/12/18 06:11:17;;;;;;;43.05;18.00;;;-4.10;99.90;;;;;;5025997;28;20453;-61
2022/12/18 06:13:43;;;;;;;45.80;18.63;;;-4.10;99.90;;;;;;5027437;28;20041;-61
2022/12/18 06:16:09;;;;;;;49.88;19.98;;;-4.10;99.90;;;;;;5033228;28;20123;-61
2022/12/18 06:18:38;;;;;;;55.13;21.27;;;-4.10;99.90;;;;;;5030163;28;20543;-61
2022/12/18 06:21:04;;;;;;;50.28;19.60;;;-4.10;99.90;;;;;;5027694;28;20034;-61
2022/12/18 06:23:29;;;;;;;43.63;18.35;;;-4.10;99.90;;;;;;5037371;28;20098;-61
2022/12/18 06:25:55;;;;;;;46.17;18.65;;;-4.10;99.90;;;;;;5027905;28;20040;-61
2022/12/18 06:28:21;;;;;;;42.22;17.83;;;-4.10;99.90;;;;;;5037615;28;20044;-61
2022/12/18 06:30:48;;;;;;;47.70;19.27;;;-4.10;99.90;;;;;;5030368;28;20040;-61
2022/12/18 06:33:14;;;;;;;46.42;19.10;;;-4.10;99.90;;;;;;5032208;28;20068;-61
2022/12/18 06:35:40;;;;;;;42.25;18.02;;;-4.10;99.90;;;;;;5031739;28;20035;-61
2022/12/18 06:38:06;;;;;;;44.85;19.50;;;-4.10;99.90;;;;;;5035560;28;20045;-61
2022/12/18 06:40:32;;;;;;;47.95;18.88;;;-4.10;99.90;;;;;;5027950;28;20088;-61
2022/12/18 06:42:57;;;;;;;45.70;18.80;;;-4.00;99.90;;;;;;5037382;28;20034;-61
2022/12/18 06:45:24;;;;;;;46.03;18.98;;;-4.10;99.90;;;;;;5036706;28;20580;-61
2022/12/18 06:47:49;;;;;;;45.30;18.95;;;-4.00;99.90;;;;;;5030561;28;20033;-61
2022/12/18 06:50:15;;;;;;;47.13;19.00;;;-4.10;99.90;;;;;;5023174;28;20498;-61
2022/12/18 06:52:42;;;;;;;43.60;18.95;;;-4.10;99.90;;;;;;5028431;28;20116;-61
2022/12/18 06:55:11;;;;;;;44.08;18.58;;;-4.10;99.90;;;;;;5034352;28;20101;-61
2022/12/18 06:57:38;;;;;;;39.25;17.10;;;-4.10;99.90;;;;;;5026468;28;20056;-62
2022/12/18 07:00:05;;;;;;;40.80;17.38;;;-4.10;99.90;;;;;;5037068;28;20403;-59
2022/12/18 07:02:31;;;;;;;39.17;17.38;;;-4.10;99.90;;;;;;5032032;28;20095;-61
2022/12/18 07:04:56;;;;;;;43.22;18.48;;;-4.10;99.90;;;;;;5028104;28;20115;-60
2022/12/18 07:07:22;;;;;;;41.08;17.88;;;-4.20;99.90;;;;;;5029692;28;20034;-58
2022/12/18 07:09:50;;;;;;;39.70;17.42;;;-4.10;99.90;;;;;;5028825;28;20152;-59
2022/12/18 07:12:16;;;;;;;47.83;17.58;;;-4.10;99.90;;;;;;5033801;28;20088;-63
2022/12/18 07:14:41;;;;;;;41.75;17.63;;;-4.20;99.90;;;;;;5029927;28;20033;-60
2022/12/18 07:17:07;;;;;;;42.83;17.05;;;-4.10;99.90;;;;;;5028262;28;20541;-58
2022/12/18 07:19:33;;;;;;;43.30;18.67;;;-4.20;99.90;;;;;;5033986;28;20049;-59
2022/12/18 07:21:59;;;;;;;39.63;17.35;;;-4.20;99.90;;;;;;5028185;28;20132;-59
2022/12/18 07:24:24;;;;;;;44.42;18.52;;;-4.20;99.90;;;;;;5026332;28;20464;-60
2022/12/18 07:26:50;;;;;;;36.83;16.92;;;-4.20;99.90;;;;;;5022669;28;20049;-60
2022/12/18 07:29:15;;;;;;;42.13;19.27;;;-4.20;99.90;;;;;;5027931;28;20034;-60
2022/12/18 07:31:41;;;;;;;40.17;17.30;;;-4.10;99.90;;;;;;5026349;28;20037;-58
2022/12/18 07:34:14;;;;;;;38.03;16.98;;;-4.20;99.90;;;;;;5029462;28;20072;-60
2022/12/18 07:36:40;;;;;;;37.22;16.77;;;-4.10;99.90;;;;;;5026021;28;20045;-61
2022/12/18 07:39:06;;;;;;;35.65;16.63;;;-4.20;99.90;;;;;;5029378;28;20569;-57
2022/12/18 07:41:31;;;;;;;37.13;15.55;;;-4.20;99.90;;;;;;5034630;28;20032;-59
2022/12/18 07:43:57;;;;;;;35.85;15.70;;;-4.20;99.90;;;;;;5032943;28;20029;-60
2022/12/18 07:46:23;;;;;;;35.47;16.63;;;-4.20;99.90;;;;;;5032954;28;20034;-59
2022/12/18 07:48:48;;;;;;;36.10;16.17;;;-4.20;99.90;;;;;;5033329;28;20065;-60
2022/12/18 07:51:14;;;;;;;38.50;17.08;;;-4.20;99.90;;;;;;5030423;28;20037;-61
2022/12/18 07:53:40;;;;;;;38.92;18.45;;;-4.20;99.90;;;;;;5031411;28;20041;-60
2022/12/18 07:56:08;;;;;;;40.45;18.15;;;-4.20;99.90;;;;;;5040912;28;20399;-58
2022/12/18 07:58:34;;;;;;;34.33;17.02;;;-4.20;99.90;;;;;;5033165;28;20033;-58
2022/12/18 08:01:08;;;;;;;35.28;16.20;;;-4.10;99.90;;;;;;5032899;28;20536;-57
2022/12/18 08:03:35;;;;;;;34.85;15.60;;;-4.10;99.90;;;;;;5023190;28;20073;-60
2022/12/18 08:06:05;;;;;;;36.92;16.50;;;-4.10;99.90;;;;;;5053077;28;20048;-59
2022/12/18 08:08:31;;;;;;;33.30;16.20;;;-4.10;99.90;;;;;;5071304;28;20043;-61
2022/12/18 08:10:57;;;;;;;34.42;15.93;;;-4.10;99.90;;;;;;5084473;28;20035;-59
2022/12/18 08:13:23;;;;;;;36.92;16.55;;;-4.10;99.90;;;;;;5082212;28;20032;-62
2022/12/18 08:16:03;;;;;;;34.20;16.38;;;-4.10;99.90;;;;;;5095144;28;20036;-62
2022/12/18 08:18:29;;;;;;;32.85;16.08;;;-4.10;99.90;;;;;;5013077;28;20050;-62
2022/12/18 08:20:55;;;;;;;35.00;16.38;;;-3.10;99.90;;;;;;4999305;28;20041;-62
2022/12/18 08:23:21;;;;;;;34.95;16.98;;;-4.00;99.90;;;;;;4968943;28;20401;-60
2022/12/18 08:25:47;;;;;;;38.95;19.00;;;-4.00;99.90;;;;;;4889951;29;20319;-60
2022/12/18 08:28:13;;;;;;;36.58;17.95;;;-4.00;99.90;;;;;;4859845;29;20041;-59
2022/12/18 08:30:53;;;;;;;39.38;17.10;;;-3.90;99.90;;;;;;5198735;27;20474;-61
2022/12/18 08:33:22;;;;;;;31.58;16.00;;;-3.90;99.90;;;;;;5147113;27;20048;-61
2022/12/18 08:35:47;;;;;;;53.70;27.60;;;-3.70;99.90;;;;;;5120516;27;20049;-62
2022/12/18 08:38:13;;;;;;;40.42;20.45;;;-3.90;99.90;;;;;;5144082;27;20035;-61
2022/12/18 08:40:38;;;;;;;43.63;26.15;;;-3.90;99.90;;;;;;5113294;27;20393;-61
2022/12/18 08:45:48;;;;;;;37.33;19.48;;;-3.80;99.90;;;;;;5043421;28;20041;-61
2022/12/18 08:48:14;;;;;;;47.22;26.73;;;-3.80;99.90;;;;;;5007258;28;20144;-63
2022/12/18 08:50:39;;;;;;;38.95;23.50;;;-3.80;99.90;;;;;;5010597;28;20046;-65
2022/12/18 08:53:05;;;;;;;50.70;28.63;;;-3.80;99.90;;;;;;4939527;28;20490;-62
2022/12/18 08:55:38;;;;;;;49.30;29.00;;;-3.80;99.90;;;;;;5175396;27;20125;-61
2022/12/18 08:58:04;;;;;;;42.78;24.40;;;-3.70;99.90;;;;;;5170251;27;20050;-61
2022/12/18 09:00:30;;;;;;;52.03;28.85;;;-3.70;99.90;;;;;;5140082;27;20083;-61
2022/12/18 09:02:55;;;;;;;42.10;22.58;;;-3.70;99.90;;;;;;5139179;27;20031;-60
2022/12/18 09:05:21;;;;;;;41.72;22.30;;;-3.60;99.90;;;;;;5104721;27;20059;-61
2022/12/18 09:07:46;;;;;;;32.58;18.58;;;-3.60;99.90;;;;;;5048333;28;20124;-63
2022/12/18 09:10:12;;;;;;;36.47;18.20;;;-3.60;99.90;;;;;;4992484;28;20054;-61
2022/12/18 09:12:37;;;;;;;35.63;19.83;;;-3.50;99.90;;;;;;4893260;29;20127;-61
2022/12/18 09:15:04;;;;;;;33.58;18.15;;;-3.50;99.90;;;;;;4898889;29;20499;-61
2022/12/18 09:17:29;;;;;;;35.38;19.10;;;-3.50;99.90;;;;;;4856087;29;20052;-61
2022/12/18 09:20:03;;;;;;;33.75;19.38;;;-3.40;99.90;;;;;;5189175;27;20483;-61
2022/12/18 09:22:28;;;;;;;35.83;18.15;;;-3.40;99.90;;;;;;5138464;27;20043;-61
2022/12/18 09:24:54;;;;;;;31.35;15.88;;;-3.30;99.90;;;;;;5138923;27;20041;-61
2022/12/18 09:27:20;;;;;;;27.17;14.45;;;-3.30;99.90;;;;;;5145816;27;20490;-61
2022/12/18 09:29:45;;;;;;;27.63;13.82;;;-3.30;99.90;;;;;;5090142;28;20119;-61
2022/12/18 09:32:11;;;;;;;29.65;15.05;;;-3.20;99.90;;;;;;5097339;28;20049;-62
2022/12/18 09:34:36;;;;;;;28.67;13.98;;;-3.20;99.90;;;;;;5088340;28;20409;-62
2022/12/18 09:37:02;;;;;;;31.13;13.80;;;-3.20;99.90;;;;;;5036113;28;20037;-60
2022/12/18 09:39:38;;;;;;;29.30;14.80;;;-3.10;99.90;;;;;;4879451;29;20068;-61
2022/12/18 09:44:46;;;;;;;26.77;13.48;;;-3.10;99.90;;;;;;5184221;27;20514;-60
2022/12/18 09:47:11;;;;;;;28.10;14.02;;;-3.00;99.90;;;;;;5114217;28;20039;-62
2022/12/18 09:49:42;;;;;;;30.60;14.25;;;-2.90;99.90;;;;;;5158650;27;20111;-60
2022/12/18 09:52:54;;;;;;;60.65;29.35;;;-2.90;99.90;;;;;;5133854;27;20071;-62
2022/12/18 09:55:34;;;;;;;79.22;37.55;;;-2.90;99.90;;;;;;5020092;28;20502;-62
2022/12/18 09:58:09;;;;;;;46.25;22.15;;;-2.90;99.90;;;;;;4976141;28;20406;-64
2022/12/18 10:00:35;;;;;;;40.90;18.23;;;-2.80;99.90;;;;;;4973118;28;23268;-61
2022/12/18 10:03:09;;;;;;;44.40;20.15;;;-2.90;99.90;;;;;;4979809;28;20358;-61
2022/12/18 10:05:49;;;;;;;35.35;19.08;;;-2.80;99.90;;;;;;4896070;28;20455;-63
2022/12/18 10:08:46;;;;;;;31.42;17.23;;;-2.80;99.90;;;;;;5195505;27;20132;-61
2022/12/18 10:11:31;;;;;;;27.95;14.70;;;-2.70;99.90;;;;;;5132439;27;20048;-61
2022/12/18 10:14:07;;;;;;;25.40;13.55;;;-2.70;99.90;;;;;;5120703;27;20047;-60
2022/12/18 10:16:51;;;;;;;22.42;13.90;;;-2.60;99.90;;;;;;5118087;27;20400;-61
2022/12/18 10:19:33;;;;;;;27.55;13.63;;;-2.60;99.90;;;;;;5087567;28;20059;-60
2022/12/18 10:22:07;;;;;;;28.85;13.73;;;-2.60;99.90;;;;;;5063425;28;20380;-59
2022/12/18 10:24:45;;;;;;;25.15;13.43;;;-2.60;99.90;;;;;;4965552;28;20057;-61
2022/12/18 10:27:16;;;;;;;28.05;13.43;;;-2.50;99.90;;;;;;4888975;29;20040;-61
2022/12/18 10:29:44;;;;;;;23.63;12.57;;;-2.50;99.90;;;;;;4786152;29;20051;-62
2022/12/18 10:32:26;;;;;;;30.97;18.47;;;-2.50;99.90;;;;;;5191068;27;20391;-61
2022/12/18 10:34:55;;;;;;;26.02;15.20;;;-2.40;99.90;;;;;;5135144;27;20043;-60
2022/12/18 10:37:30;;;;;;;26.95;15.60;;;-2.40;99.90;;;;;;5129995;27;20567;-60
2022/12/18 10:40:13;;;;;;;26.55;14.60;;;-2.30;99.90;;;;;;5101237;28;20440;-62
2022/12/18 10:42:40;;;;;;;27.33;13.55;;;-2.30;99.90;;;;;;5051843;28;20049;-62
2022/12/18 10:45:17;;;;;;;26.38;12.85;;;-2.30;99.90;;;;;;5066203;28;20043;-60
2022/12/18 10:47:48;;;;;;;26.90;14.13;;;-2.20;99.90;;;;;;4985521;28;20372;-60
2022/12/18 10:50:32;;;;;;;27.85;15.40;;;-2.20;99.90;;;;;;4937410;28;20403;-60
2022/12/18 10:53:17;;;;;;;;;;;-2.20;99.90;;;;;;4779911;29;20055;-62
2022/12/18 10:58:32;;;;;;;26.70;14.35;;;-2.10;99.90;;;;;;5189159;27;20502;-61
2022/12/18 11:01:16;;;;;;;25.38;14.80;;;-2.10;99.90;;;;;;5140328;27;20054;-61
2022/12/18 11:03:57;;;;;;;27.75;14.48;;;-2.00;99.90;;;;;;5096177;27;20091;-62
2022/12/18 11:06:24;;;;;;;27.90;14.75;;;-2.00;99.90;;;;;;5083302;27;20048;-63
2022/12/18 11:09:19;;;;;;;33.17;16.35;;;-2.00;99.90;;;;;;5115111;27;20428;-64
2022/12/18 11:11:52;;;;;;;35.00;18.38;;;-2.00;99.90;;;;;;5068191;28;20040;-62
2022/12/18 11:14:28;;;;;;;43.40;21.55;;;-2.00;99.90;;;;;;4974647;28;20051;-63
2022/12/18 11:16:56;;;;;;;40.97;21.15;;;-1.90;99.90;;;;;;4860250;29;20053;-61
2022/12/18 11:19:38;;;;;;;38.50;20.38;;;-1.90;99.90;;;;;;4810977;29;20072;-61
2022/12/18 11:24:36;;;;;;;25.38;14.93;;;-1.80;99.90;;;;;;5176521;27;20125;-61
2022/12/18 11:27:04;;;;;;;24.98;13.60;;;-1.70;99.90;;;;;;5139991;27;20411;-60
2022/12/18 11:29:36;;;;;;;21.80;11.48;;;-1.70;99.90;;;;;;5154839;27;20054;-59
2022/12/18 11:32:23;;;;;;;21.05;11.57;;;-1.70;99.90;;;;;;5136454;27;20040;-60
2022/12/18 11:34:58;;;;;;;20.42;11.50;;;-1.60;99.90;;;;;;5056287;28;20067;-59
2022/12/18 11:37:25;;;;;;;22.73;12.20;;;-1.60;99.90;;;;;;4997710;28;20129;-60
2022/12/18 11:40:17;;;;;;;19.23;10.52;;;-1.60;99.90;;;;;;4981888;28;20114;-60
2022/12/18 11:42:51;;;;;;;17.52;9.32;;;-1.60;99.90;;;;;;4919426;28;20063;-61
2022/12/18 11:45:49;;;;;;;18.35;9.35;;;-1.60;99.90;;;;;;5189076;27;20126;-61
2022/12/18 11:48:24;;;;;;;19.70;10.98;;;-1.60;99.90;;;;;;5165163;27;20046;-59
2022/12/18 11:50:55;;;;;;;21.13;10.75;;;-1.50;99.90;;;;;;5116397;27;20102;-60
2022/12/18 11:53:23;;;;;;;19.67;10.45;;;-1.50;99.90;;;;;;5135479;27;20144;-62
2022/12/18 11:55:48;;;;;;;18.48;10.40;;;-1.50;99.90;;;;;;5117235;27;20043;-61
2022/12/18 11:58:29;;;;;;;15.82;8.93;;;-1.50;99.90;;;;;;5100969;28;20047;-61
2022/12/18 12:01:14;;;;;;;23.38;15.77;;;-1.50;99.90;;;;;;5040944;28;20127;-60
2022/12/18 12:04:31;;;;;;;27.98;16.50;;;-1.50;99.90;;;;;;5065423;28;20044;-60
2022/12/18 12:07:23;;;;;;;18.55;12.18;;;-1.50;99.90;;;;;;4871373;29;20056;-60
2022/12/18 12:10:15;;;;;;;18.88;11.38;;;-1.40;99.90;;;;;;5179238;27;20121;-61
2022/12/18 12:12:58;;;;;;;18.17;11.10;;;-1.40;99.90;;;;;;5138987;27;20089;-61
2022/12/18 12:15:46;;;;;;;19.48;10.25;;;-1.40;99.90;;;;;;5131375;27;20036;-61
2022/12/18 12:18:23;;;;;;;21.80;9.57;;;-1.40;99.90;;;;;;5058293;28;20049;-60
2022/12/18 12:21:03;;;;;;;19.30;9.98;;;-1.40;99.90;;;;;;5019201;28;20042;-61
2022/12/18 12:23:44;;;;;;;16.65;9.40;;;-1.40;99.90;;;;;;4946042;28;20530;-61
2022/12/18 12:26:24;;;;;;;17.23;9.05;;;-1.30;99.90;;;;;;4855243;29;20173;-62
2022/12/18 12:29:18;;;;;;;16.35;10.07;;;-1.30;99.90;;;;;;4809394;29;20051;-64
2022/12/18 12:34:53;;;;;;;15.07;7.65;;;-1.30;99.90;;;;;;5187429;27;20128;-61
2022/12/18 12:37:25;;;;;;;13.32;7.53;;;-1.20;99.90;;;;;;5098688;28;20051;-61
2022/12/18 12:39:54;;;;;;;13.73;7.57;;;-1.20;99.90;;;;;;5105957;28;20056;-62
2022/12/18 12:45:40;;;;;;;13.20;7.43;;;-1.20;99.90;;;;;;5064296;28;20057;-61
2022/12/18 12:48:27;;;;;;;13.05;7.53;;;-1.10;99.90;;;;;;5040373;28;20406;-61
2022/12/18 12:50:54;;;;;;;12.88;6.88;;;-1.10;99.90;;;;;;5007968;28;20061;-63
2022/12/18 12:53:30;;;;;;;12.93;7.15;;;-1.10;99.90;;;;;;5041343;28;20163;-61
2022/12/18 12:55:57;;;;;;;14.15;6.97;;;-1.10;99.90;;;;;;4865889;29;20038;-64
2022/12/18 12:58:44;;;;;;;14.43;8.80;;;-1.00;99.90;;;;;;5192695;27;20124;-60
2022/12/18 13:01:21;;;;;;;14.18;6.85;;;-1.00;99.90;;;;;;5152776;27;20200;-61
2022/12/18 13:04:06;;;;;;;14.75;7.82;;;-1.00;99.90;;;;;;5140256;27;20417;-60
2022/12/18 13:06:57;;;;;;;11.07;6.50;;;-1.00;99.90;;;;;;5168504;27;20137;-59